createdAt,value
2022-08-07T00:00:26.478Z,1.73
2022-08-07T00:02:56.941Z,1.70
2022-08-07T00:05:25.882Z,1.10
2022-08-07T00:07:58.284Z,1.00
2022-08-07T00:10:30.574Z,1.35
2022-08-07T00:13:02.189Z,1.27
2022-08-07T00:15:38.047Z,1.00
2022-08-07T00:18:19.778Z,1.05
2022-08-07T00:20:51.263Z,1.00
2022-08-07T00:23:21.455Z,1.60
2022-08-07T00:25:52.560Z,1.15
2022-08-07T00:28:33.746Z,1.15
2022-08-07T00:31:05.745Z,1.38
2022-08-07T00:33:36.422Z,1.02
2022-08-07T00:36:07.689Z,1.20
2022-08-07T00:38:37.467Z,1.08
2022-08-07T00:41:10.074Z,1.40
2022-08-07T00:44:00.694Z,1.10
2022-08-07T00:46:32.961Z,1.30
2022-08-07T00:49:03.551Z,1.17
2022-08-07T00:51:56.553Z,0.95
2022-08-07T00:54:20.168Z,1.42
2022-08-07T00:56:51.523Z,1.15
2022-08-07T00:59:35.918Z,1.20
2022-08-07T01:02:08.814Z,1.13
2022-08-07T01:04:43.866Z,1.38
2022-08-07T01:07:12.915Z,1.13
2022-08-07T01:10:05.227Z,1.05
2022-08-07T01:12:31.129Z,1.40
2022-08-07T01:15:01.731Z,1.27
2022-08-07T01:17:32.532Z,1.90
2022-08-07T01:20:08.207Z,1.30
2022-08-07T01:22:47.032Z,1.52
2022-08-07T01:25:55.059Z,1.20
2022-08-07T01:28:17.581Z,1.75
2022-08-07T01:30:48.491Z,1.38
2022-08-07T01:33:20.862Z,1.67
2022-08-07T01:35:53.296Z,1.95
2022-08-07T01:38:25.799Z,1.58
2022-08-07T01:41:01.498Z,1.20
2022-08-07T01:43:38.076Z,1.45
2022-08-07T01:46:12.166Z,1.88
2022-08-07T01:48:46.798Z,1.67
2022-08-07T01:52:02.471Z,1.55
2022-08-07T01:54:37.119Z,1.85
2022-08-07T01:57:08.268Z,1.90
2022-08-07T01:59:45.146Z,2.30
2022-08-07T02:03:11.401Z,2.00
2022-08-07T02:05:16.195Z,1.60
2022-08-07T02:08:04.902Z,2.08
2022-08-07T02:10:42.155Z,2.38
2022-08-07T02:13:12.880Z,1.92
2022-08-07T02:15:54.121Z,1.70
2022-08-07T02:18:23.063Z,1.60
2022-08-07T02:20:57.347Z,2.03
2022-08-07T02:23:27.665Z,1.83
2022-08-07T02:26:31.943Z,2.50
2022-08-07T02:28:50.283Z,2.15
2022-08-07T02:31:28.670Z,1.40
2022-08-07T02:34:04.120Z,1.90
2022-08-07T02:36:45.298Z,2.20
2022-08-07T02:39:43.544Z,1.60
2022-08-07T02:42:10.147Z,1.88
2022-08-07T02:44:48.783Z,1.30
2022-08-07T02:47:23.713Z,1.83
2022-08-07T02:49:58.313Z,2.60
2022-08-07T02:52:33.263Z,1.77
2022-08-07T02:55:27.283Z,1.60
2022-08-07T02:57:59.951Z,2.10
2022-08-07T03:00:30.919Z,1.90
2022-08-07T03:03:06.118Z,1.58
2022-08-07T03:05:37.891Z,1.60
2022-08-07T03:08:10.182Z,1.70
2022-08-07T03:10:46.434Z,2.03
2022-08-07T03:13:20.243Z,1.65
2022-08-07T03:15:56.742Z,1.73
2022-08-07T03:18:34.618Z,2.53
2022-08-07T03:21:08.821Z,1.45
2022-08-07T03:24:20.117Z,1.50
2022-08-07T03:26:33.074Z,1.88
2022-08-07T03:29:11.141Z,2.75
2022-08-07T03:31:46.110Z,2.28
2022-08-07T03:34:18.733Z,1.50
2022-08-07T03:36:53.287Z,1.75
2022-08-07T03:39:45.973Z,2.00
2022-08-07T03:42:13.028Z,2.95
2022-08-07T03:44:47.310Z,2.30
2022-08-07T03:47:22.725Z,1.95
2022-08-07T03:49:52.690Z,1.80
2022-08-07T03:52:27.642Z,2.03
2022-08-07T03:55:07.004Z,1.77
2022-08-07T03:58:32.675Z,1.52
2022-08-07T04:00:35.402Z,1.20
2022-08-07T04:03:05.206Z,1.50
2022-08-07T04:05:40.363Z,1.80
2022-08-07T04:08:18.423Z,1.75
2022-08-07T04:10:54.411Z,1.90
2022-08-07T04:14:10.606Z,1.40
2022-08-07T04:16:31.397Z,1.73
2022-08-07T04:19:12.622Z,1.48
2022-08-07T04:21:47.998Z,1.35
2022-08-07T04:24:33.799Z,1.30
2022-08-07T04:27:15.190Z,1.45
2022-08-07T04:30:02.203Z,1.70
2022-08-07T04:32:58.885Z,1.60
2022-08-07T04:35:35.157Z,3.47
2022-08-07T04:38:09.132Z,2.25
2022-08-07T04:40:51.632Z,1.70
2022-08-07T04:44:12.791Z,1.83
2022-08-07T04:46:34.553Z,1.63
2022-08-07T04:49:24.229Z,1.65
2022-08-07T04:52:00.955Z,1.77
2022-08-07T04:54:35.721Z,1.65
2022-08-07T04:58:13.688Z,1.73
2022-08-07T05:00:12.634Z,1.30
2022-08-07T05:02:54.038Z,1.55
2022-08-07T05:05:52.950Z,1.55
2022-08-07T05:08:59.570Z,1.52
2022-08-07T05:11:19.085Z,2.08
2022-08-07T05:14:51.941Z,1.60
2022-08-07T05:17:05.955Z,1.15
2022-08-07T05:19:45.085Z,1.35
2022-08-07T05:22:26.521Z,1.63
2022-08-07T05:24:57.169Z,1.65
2022-08-07T05:28:16.305Z,2.30
2022-08-07T05:30:29.946Z,1.92
2022-08-07T05:33:02.468Z,1.50
2022-08-07T05:35:41.952Z,1.73
2022-08-07T05:38:13.016Z,1.40
2022-08-07T05:41:02.485Z,1.70
2022-08-07T05:43:49.681Z,1.40
2022-08-07T05:46:30.198Z,1.52
2022-08-07T05:48:59.867Z,1.73
2022-08-07T05:51:33.492Z,1.60
2022-08-07T05:54:29.866Z,1.48
2022-08-07T05:56:58.924Z,1.55
2022-08-07T05:59:28.389Z,1.88
2022-08-07T06:02:08.266Z,1.83
2022-08-07T06:04:40.460Z,1.40
2022-08-07T06:07:11.607Z,1.83
2022-08-07T06:10:05.355Z,1.48
2022-08-07T06:12:35.438Z,1.60
2022-08-07T06:15:05.614Z,2.00
2022-08-07T06:17:37.584Z,2.05
2022-08-07T06:20:12.776Z,1.42
2022-08-07T06:23:02.347Z,1.40
2022-08-07T06:25:54.412Z,1.83
2022-08-07T06:28:28.146Z,1.40
2022-08-07T06:30:58.613Z,1.65
2022-08-07T06:33:29.696Z,1.27
2022-08-07T06:36:12.158Z,1.55
2022-08-07T06:40:13.666Z,1.50
2022-08-07T06:42:02.179Z,1.73
2022-08-07T06:44:52.868Z,1.27
2022-08-07T06:47:22.599Z,1.20
2022-08-07T06:49:58.729Z,1.80
2022-08-07T06:52:36.952Z,2.03
2022-08-07T06:55:32.937Z,1.40
2022-08-07T06:58:09.648Z,1.33
2022-08-07T07:00:47.200Z,1.60
2022-08-07T07:03:26.316Z,1.35
2022-08-07T07:06:11.331Z,1.50
2022-08-07T07:08:39.886Z,1.10
2022-08-07T07:12:08.606Z,2.22
2022-08-07T07:14:08.580Z,1.60
2022-08-07T07:16:49.740Z,1.20
2022-08-07T07:19:55.087Z,1.60
2022-08-07T07:22:33.845Z,1.75
2022-08-07T07:25:14.274Z,1.38
2022-08-07T07:27:55.450Z,1.48
2022-08-07T07:30:37.769Z,1.92
2022-08-07T07:33:08.591Z,1.35
2022-08-07T07:35:54.080Z,1.60
2022-08-07T07:38:30.880Z,1.60
2022-08-07T07:41:03.858Z,2.03
2022-08-07T07:43:47.899Z,1.80
2022-08-07T07:46:36.913Z,1.35
2022-08-07T07:50:35.337Z,1.45
2022-08-07T07:52:05.910Z,1.45
2022-08-07T07:54:36.686Z,1.55
2022-08-07T07:57:06.550Z,1.50
2022-08-07T07:59:51.778Z,1.80
2022-08-07T08:02:35.551Z,1.60
2022-08-07T08:05:11.522Z,2.65
2022-08-07T08:08:00.066Z,1.55
2022-08-07T08:10:35.614Z,2.00
2022-08-07T08:13:10.306Z,2.10
2022-08-07T08:15:59.098Z,1.50
2022-08-07T08:18:30.537Z,1.50
2022-08-07T08:21:01.737Z,2.00
2022-08-07T08:23:51.900Z,2.10
2022-08-07T08:26:38.019Z,1.80
2022-08-07T08:29:08.401Z,1.85
2022-08-07T08:31:58.750Z,2.35
2022-08-07T08:34:39.485Z,1.92
2022-08-07T08:37:09.948Z,1.70
2022-08-07T08:39:58.337Z,2.05
2022-08-07T08:42:30.110Z,1.73
2022-08-07T08:45:06.447Z,2.03
2022-08-07T08:47:47.240Z,2.33
2022-08-07T08:50:28.584Z,2.03
2022-08-07T08:53:14.360Z,2.30
2022-08-07T08:55:55.362Z,2.17
2022-08-07T08:58:34.932Z,2.00
2022-08-07T09:01:24.283Z,1.63
2022-08-07T09:04:06.861Z,2.17
2022-08-07T09:06:48.051Z,1.92
2022-08-07T09:09:36.798Z,1.80
2022-08-07T09:12:31.312Z,2.08
2022-08-07T09:16:23.533Z,1.90
2022-08-07T09:18:22.515Z,2.05
2022-08-07T09:21:00.968Z,2.28
2022-08-07T09:24:54.550Z,1.80
2022-08-07T09:26:38.969Z,1.70
2022-08-07T09:30:03.988Z,2.00
2022-08-07T09:32:21.024Z,1.92
2022-08-07T09:34:55.957Z,1.73
2022-08-07T09:37:48.559Z,1.85
2022-08-07T09:40:31.036Z,1.83
2022-08-07T09:43:08.845Z,1.73
2022-08-07T09:47:50.259Z,1.85
2022-08-07T09:48:55.967Z,2.05
2022-08-07T09:52:15.777Z,1.90
2022-08-07T09:54:37.184Z,1.77
2022-08-07T09:57:52.937Z,1.60
2022-08-07T10:00:31.878Z,1.80
2022-08-07T10:04:06.452Z,1.92
2022-08-07T10:06:25.711Z,2.00
2022-08-07T10:09:42.997Z,1.95
2022-08-07T10:12:26.375Z,1.55
2022-08-07T10:15:24.599Z,1.63
2022-08-07T10:18:16.979Z,2.40
2022-08-07T10:21:02.379Z,2.20
2022-08-07T10:24:04.734Z,1.85
2022-08-07T10:26:51.573Z,1.80
2022-08-07T10:29:45.570Z,2.10
2022-08-07T10:32:37.136Z,2.20
2022-08-07T10:35:56.446Z,2.40
2022-08-07T10:38:35.743Z,2.70
2022-08-07T10:41:51.697Z,2.50
2022-08-07T10:44:17.015Z,3.28
2022-08-07T10:46:55.294Z,2.58
2022-08-07T10:49:49.218Z,2.70
2022-08-07T10:52:38.181Z,2.42
2022-08-07T10:55:27.032Z,2.28
2022-08-07T10:58:24.928Z,2.33
2022-08-07T11:01:15.121Z,2.97
2022-08-07T11:03:52.691Z,2.10
2022-08-07T11:06:27.383Z,2.20
2022-08-07T11:09:03.862Z,2.35
2022-08-07T11:11:51.872Z,2.58
2022-08-07T11:14:44.241Z,2.45
2022-08-07T11:17:43.354Z,2.60
2022-08-07T11:20:22.568Z,2.60
2022-08-07T11:23:01.436Z,2.72
2022-08-07T11:25:48.303Z,2.50
2022-08-07T11:28:21.194Z,2.88
2022-08-07T11:30:57.983Z,2.88
2022-08-07T11:33:54.372Z,2.55
2022-08-07T11:36:41.748Z,2.90
2022-08-07T11:39:19.815Z,2.97
2022-08-07T11:42:00.372Z,3.25
2022-08-07T11:44:40.524Z,2.35
2022-08-07T11:47:38.820Z,2.85
2022-08-07T11:50:35.010Z,2.78
2022-08-07T11:53:13.607Z,2.35
2022-08-07T11:56:25.101Z,2.60
2022-08-07T11:59:01.091Z,2.42
2022-08-07T12:02:00.696Z,2.25
2022-08-07T12:04:39.742Z,2.38
2022-08-07T12:07:20.211Z,2.30
2022-08-07T12:10:02.210Z,2.15
2022-08-07T12:12:38.230Z,2.80
2022-08-07T12:15:17.412Z,2.67
2022-08-07T12:18:11.265Z,2.58
2022-08-07T12:20:49.383Z,3.55
2022-08-07T12:24:06.083Z,5.63
2022-08-07T12:26:28.919Z,6.05
2022-08-07T12:29:08.167Z,3.53
2022-08-07T12:32:01.817Z,3.17
2022-08-07T12:34:32.519Z,3.30
2022-08-07T12:37:01.618Z,3.92
2022-08-07T12:39:44.409Z,3.00
2022-08-07T12:42:28.070Z,2.67
2022-08-07T12:44:59.313Z,2.60
2022-08-07T12:47:40.562Z,2.58
2022-08-07T12:50:33.713Z,2.70
2022-08-07T12:53:18.247Z,2.58
2022-08-07T12:56:03.235Z,2.40
2022-08-07T12:58:37.418Z,2.40
2022-08-07T13:01:15.605Z,3.03
2022-08-07T13:04:04.659Z,2.50
2022-08-07T13:07:02.466Z,2.25
2022-08-07T13:10:29.202Z,2.45
2022-08-07T13:12:44.925Z,2.28
2022-08-07T13:15:29.846Z,2.78
2022-08-07T13:18:26.439Z,4.93
2022-08-07T13:21:03.766Z,5.07
2022-08-07T13:24:02.222Z,4.22
2022-08-07T13:26:36.112Z,2.58
2022-08-07T13:29:12.531Z,2.72
2022-08-07T13:31:57.895Z,2.45
2022-08-07T13:34:38.133Z,2.17
2022-08-07T13:37:19.565Z,2.10
2022-08-07T13:40:35.388Z,2.53
2022-08-07T13:42:53.406Z,2.15
2022-08-07T13:46:11.338Z,2.40
2022-08-07T13:48:20.845Z,2.28
2022-08-07T13:51:20.486Z,2.20
2022-08-07T13:54:00.569Z,2.20
2022-08-07T13:56:36.202Z,2.60
2022-08-07T13:59:13.406Z,2.30
2022-08-07T14:01:51.253Z,2.45
2022-08-07T14:04:29.671Z,2.38
2022-08-07T14:07:09.537Z,2.20
2022-08-07T14:10:03.101Z,1.95
2022-08-07T14:12:36.150Z,2.03
2022-08-07T14:15:19.062Z,2.10
2022-08-07T14:18:24.467Z,2.10
2022-08-07T14:20:49.121Z,2.13
2022-08-07T14:23:31.359Z,2.17
2022-08-07T14:26:30.453Z,2.13
2022-08-07T14:29:10.391Z,1.88
2022-08-07T14:31:57.978Z,2.03
2022-08-07T14:34:29.953Z,2.33
2022-08-07T14:37:02.985Z,2.38
2022-08-07T14:40:17.258Z,2.30
2022-08-07T14:42:32.285Z,2.50
2022-08-07T14:45:21.489Z,2.13
2022-08-07T14:47:52.986Z,2.42
2022-08-07T14:50:27.909Z,1.85
2022-08-07T14:52:56.305Z,2.20
2022-08-07T14:55:47.920Z,2.10
2022-08-07T14:58:30.004Z,2.03
2022-08-07T15:01:00.091Z,2.10
2022-08-07T15:03:52.192Z,1.98
2022-08-07T15:09:57.212Z,2.38
2022-08-07T15:12:10.821Z,2.20
2022-08-07T15:15:07.599Z,2.00
2022-08-07T15:17:55.232Z,2.33
2022-08-07T15:20:32.626Z,2.15
2022-08-07T15:23:16.964Z,2.13
2022-08-07T15:25:56.591Z,2.00
2022-08-07T15:28:34.521Z,2.00
2022-08-07T15:31:09.083Z,2.75
2022-08-07T15:33:42.725Z,2.42
2022-08-07T15:36:12.503Z,2.10
2022-08-07T15:38:59.158Z,1.90
2022-08-07T15:44:23.960Z,2.65
2022-08-07T15:50:05.529Z,2.45
2022-08-07T15:52:37.000Z,2.30
2022-08-07T15:55:11.651Z,2.70
2022-08-07T15:57:48.755Z,2.70
2022-08-07T16:00:31.804Z,2.80
2022-08-07T16:03:08.542Z,2.83
2022-08-07T16:05:51.963Z,2.83
2022-08-07T16:08:32.106Z,2.63
2022-08-07T16:11:26.734Z,2.47
2022-08-07T16:14:05.281Z,2.47
2022-08-07T16:16:47.719Z,2.58
2022-08-07T16:19:41.857Z,2.70
2022-08-07T16:22:58.337Z,2.63
2022-08-07T16:25:55.300Z,2.30
2022-08-07T16:30:06.618Z,2.38
2022-08-07T16:31:58.241Z,2.42
2022-08-07T16:34:48.591Z,2.50
2022-08-07T16:38:03.625Z,2.33
2022-08-07T16:41:01.908Z,2.50
2022-08-07T16:44:06.099Z,3.13
2022-08-07T16:47:05.921Z,2.42
2022-08-07T16:50:35.579Z,2.70
2022-08-07T16:54:01.212Z,2.92
2022-08-07T16:56:24.073Z,2.80
2022-08-07T16:59:11.145Z,2.95
2022-08-07T17:01:56.658Z,2.63
2022-08-07T17:04:37.010Z,2.67
2022-08-07T17:07:55.175Z,2.78
2022-08-07T17:10:33.187Z,2.58
2022-08-07T17:13:25.403Z,2.47
2022-08-07T17:16:15.313Z,2.88
2022-08-07T17:18:51.057Z,2.85
2022-08-07T17:21:25.543Z,2.58
2022-08-07T17:24:17.816Z,2.80
2022-08-07T17:26:59.825Z,3.33
2022-08-07T17:30:15.524Z,2.50
2022-08-07T17:32:35.518Z,3.60
2022-08-07T17:35:49.641Z,3.45
2022-08-07T17:38:05.672Z,2.80
2022-08-07T17:40:50.452Z,3.35
2022-08-07T17:44:01.469Z,2.65
2022-08-07T17:46:18.214Z,2.50
2022-08-07T17:49:08.809Z,2.72
2022-08-07T17:51:49.649Z,2.38
2022-08-07T17:54:53.569Z,2.30
2022-08-07T17:57:56.353Z,3.00
2022-08-07T18:00:32.923Z,2.58
2022-08-07T18:03:18.356Z,2.65
2022-08-07T18:06:02.959Z,2.42
2022-08-07T18:09:01.373Z,2.47
2022-08-07T18:12:19.537Z,2.60
2022-08-07T18:14:46.267Z,2.60
2022-08-07T18:18:46.421Z,2.40
2022-08-07T18:21:06.659Z,2.63
2022-08-07T18:23:43.418Z,2.53
2022-08-07T18:26:19.007Z,2.45
2022-08-07T18:29:04.102Z,2.90
2022-08-07T18:31:57.911Z,2.55
2022-08-07T18:35:01.187Z,2.80
2022-08-07T18:38:55.110Z,2.88
2022-08-07T18:40:57.699Z,2.95
2022-08-07T18:43:57.261Z,3.05
2022-08-07T18:46:33.639Z,3.28
2022-08-07T18:50:32.560Z,3.72
2022-08-07T18:52:56.938Z,2.95
2022-08-07T18:55:42.736Z,3.05
2022-08-07T18:58:32.811Z,3.03
2022-08-07T19:02:18.793Z,3.03
2022-08-07T19:04:16.447Z,3.22
2022-08-07T19:07:02.625Z,3.35
2022-08-07T19:09:55.576Z,3.38
2022-08-07T19:12:33.513Z,3.20
2022-08-07T19:16:03.577Z,3.33
2022-08-07T19:18:34.816Z,3.13
2022-08-07T19:21:47.965Z,3.30
2022-08-07T19:24:06.201Z,3.13
2022-08-07T19:28:28.465Z,3.05
2022-08-07T19:31:00.621Z,3.40
2022-08-07T19:32:25.630Z,2.92
2022-08-07T19:35:02.913Z,3.38
2022-08-07T19:37:56.254Z,3.45
2022-08-07T19:40:31.667Z,3.47
2022-08-07T19:43:10.822Z,3.20
2022-08-07T19:46:06.100Z,3.25
2022-08-07T19:48:43.620Z,3.30
2022-08-07T19:51:20.446Z,3.22
2022-08-07T19:54:31.587Z,3.63
2022-08-07T19:57:51.866Z,3.47
2022-08-07T19:59:47.137Z,3.08
2022-08-07T20:02:26.826Z,3.10
2022-08-07T20:04:57.878Z,3.50
2022-08-07T20:07:47.545Z,3.38
2022-08-07T20:10:36.939Z,3.30
2022-08-07T20:13:22.411Z,3.55
2022-08-07T20:15:55.175Z,3.97
2022-08-07T20:18:32.634Z,3.40
2022-08-07T20:21:03.273Z,3.80
2022-08-07T20:23:51.876Z,3.92
2022-08-07T20:26:29.881Z,3.63
2022-08-07T20:29:10.157Z,4.07
2022-08-07T20:31:44.389Z,3.45
2022-08-07T20:34:34.420Z,3.70
2022-08-07T20:37:09.002Z,3.30
2022-08-07T20:40:02.042Z,4.28
2022-08-07T20:42:31.081Z,3.15
2022-08-07T20:45:01.172Z,3.28
2022-08-07T20:47:56.854Z,3.70
2022-08-07T20:50:22.921Z,3.90
2022-08-07T20:52:52.895Z,3.63
2022-08-07T20:55:23.539Z,3.40
2022-08-07T20:58:03.350Z,3.55
2022-08-07T21:00:42.571Z,3.67
2022-08-07T21:03:12.666Z,3.30
2022-08-07T21:05:56.208Z,3.22
2022-08-07T21:08:38.201Z,3.53
2022-08-07T21:11:12.353Z,2.90
2022-08-07T21:14:16.678Z,3.40
2022-08-07T21:16:56.059Z,3.78
2022-08-07T21:19:51.616Z,3.40
2022-08-07T21:22:25.536Z,3.38
2022-08-07T21:25:12.371Z,3.45
2022-08-07T21:28:01.868Z,3.63
2022-08-07T21:30:47.635Z,3.40
2022-08-07T21:33:22.467Z,3.42
2022-08-07T21:36:06.162Z,3.47
2022-08-07T21:38:50.061Z,3.67
2022-08-07T21:41:23.324Z,3.58
2022-08-07T21:43:59.319Z,3.70
2022-08-07T21:46:40.399Z,3.60
2022-08-07T21:49:16.371Z,3.63
2022-08-07T21:52:03.892Z,3.58
2022-08-07T21:54:46.137Z,3.45
2022-08-07T21:57:31.340Z,3.58
2022-08-07T22:00:22.741Z,3.75
2022-08-07T22:03:03.615Z,3.67
2022-08-07T22:05:45.984Z,3.78
2022-08-07T22:08:18.605Z,3.42
2022-08-07T22:10:50.713Z,4.07
2022-08-07T22:13:24.453Z,3.38
2022-08-07T22:16:42.712Z,3.60
2022-08-07T22:19:07.488Z,4.20
2022-08-07T22:22:02.601Z,3.58
2022-08-07T22:24:34.468Z,3.80
2022-08-07T22:27:07.453Z,3.78
2022-08-07T22:29:48.035Z,3.22
2022-08-07T22:32:25.148Z,3.53
2022-08-07T22:34:57.060Z,3.72
2022-08-07T22:38:04.490Z,3.53
2022-08-07T22:40:27.755Z,3.90
2022-08-07T22:43:00.613Z,4.00
2022-08-07T22:46:21.790Z,4.00
2022-08-07T22:49:00.460Z,4.45
2022-08-07T22:51:49.391Z,3.92
2022-08-07T22:54:48.894Z,4.25
2022-08-07T22:57:37.398Z,3.78
2022-08-07T23:00:13.339Z,4.00
2022-08-07T23:02:52.269Z,3.80
2022-08-07T23:06:10.075Z,3.80
2022-08-07T23:08:58.616Z,4.03
2022-08-07T23:11:59.393Z,3.50
2022-08-07T23:14:56.482Z,3.28
2022-08-07T23:17:41.665Z,3.60
2022-08-07T23:20:51.472Z,3.13
2022-08-07T23:24:05.233Z,3.53
2022-08-07T23:26:50.086Z,3.25
2022-08-07T23:30:38.324Z,3.50
2022-08-07T23:34:33.303Z,3.10
2022-08-07T23:35:55.482Z,3.17
2022-08-07T23:38:36.684Z,2.83
2022-08-07T23:41:33.503Z,3.05
2022-08-07T23:44:29.439Z,3.05
2022-08-07T23:47:20.755Z,3.08
2022-08-07T23:50:20.993Z,3.22
2022-08-07T23:53:06.801Z,2.90
2022-08-07T23:55:47.033Z,2.80
2022-08-07T23:58:30.917Z,3.20
